Airfield :
LOGIN :

Register | Disclaimer

   EN    FR    IT 

 










Legend :    VFR   Marginal VFR   IFR   Intensive IFR   Very Intensive IFR
Visi :
Ceiling :
>= 8 km
>= 3000ft
5 to 8 km
1000 to 3000 ft
1500m to 5 km
500 to 1000 ft
800 to 1500m
200 to 500 ft
< 800m
< 200 ft
Symbols :   Thunderstorms  Fog  Heavy snow  Heavy precipitations  Wind > 20 kt
SIGMETs :     Misc.  Thunderstorms  Icing  Turbulence  Mountain Waves  Volcanic Ashes







- Airport Elevation : 195 ft
- Download approach charts


LFMY - Salon de Provence

CURRENT METAR :
  • 270300Z AUTO 32011KT 270V350 CAVOK 08/04 Q1010

EXPIRED METARs :
  • 270230Z AUTO 31009KT CAVOK 08/04 Q1010
  • 270200Z AUTO 31008KT 280V360 CAVOK 08/04 Q1010
  • 270130Z AUTO 32008KT 290V360 CAVOK 08/04 Q1010
  • 270100Z AUTO 33012KT 290V360 CAVOK 08/04 Q1010
  • 270030Z AUTO 32010KT 280V340 CAVOK 08/04 Q1010

TAF TAF LFMY
Valid from the 26 at 15:00 until the 27 at 15:00 UTC


261400Z 2615/2715 32010KT CAVOK
TEMPO 2703/2706 5000 RA SCT014 BKN040
No reported NOTAMs for that airfield.
2 SIGMETs reported for the Marseille FIR (LFMM) :
 
Severe turbulence
LFMM SIGMET 1 VALID 270300/270700 LFPW
LFMM MARSEILLE FIR/UIR SEV TURB FCST WI N4630 E00300 - N4630 E00545 - N4515 E00245 FL140/220 STNR NC=
Embedded thunderstorms
LFMM SIGMET 1 VALID 262300/270300 LFPW
LFMM MARSEILLE FIR/UIR EMBD TS FCST S OF LINE N4030 E00800 - N3900 E00515 TOP FL350 STNR NC=



MET'MAP, your aeronautical weather chart ! - Copyright ORBIFLY December 2007 - Disclaimer

ORBIFLY MET'MAP TEAM :

Programming & Development : Alexandra Zaïnal
Concept & Development : Baudouin d'Aumeries
Co-Development & Prog : Marc-Olivier Méhu
Technical & hardware support : Manuel Goepfert

Contact : metmap@orbifly.com




SOURCES & CREDITS :

   NOAA